Airfield :
LOGIN :

Register | Disclaimer

   EN    FR    IT 

 










Legend :    VFR   Marginal VFR   IFR   Intensive IFR   Very Intensive IFR
Visi :
Ceiling :
>= 8 km
>= 3000ft
5 to 8 km
1000 to 3000 ft
1500m to 5 km
500 to 1000 ft
800 to 1500m
200 to 500 ft
< 800m
< 200 ft
Symbols :   Thunderstorms  Fog  Heavy snow  Heavy precipitations  Wind > 20 kt
SIGMETs :     Misc.  Thunderstorms  Icing  Turbulence  Mountain Waves  Volcanic Ashes






- Airport Elevation : 28 ft
- IATA code : SOZ


LFKS - Solenzara

CURRENT METAR :
  • 162200Z AUTO 26006KT 240V300 CAVOK 20/13 Q1015

EXPIRED METARs :
  • 162130Z AUTO 26005KT 230V290 CAVOK 21/14 Q1015
  • 162100Z AUTO 27006KT 240V300 CAVOK 21/14 Q1015
  • 162030Z AUTO 27005KT 240V300 CAVOK 21/14 Q1015
  • 162000Z AUTO 27004KT CAVOK 22/14 Q1014
  • 161930Z AUTO 27004KT CAVOK 22/14 Q1014
  • 161900Z AUTO VRB02KT CAVOK 23/17 Q1013
  • 161830Z AUTO 00000KT CAVOK 24/17 Q1013
  • 161800Z AUTO VRB03KT CAVOK 25/17 Q1013
  • 161730Z AUTO VRB02KT CAVOK 25/17 Q1013

TAF TAF LFKS
Valid from the 16 at 15:00 until the 17 at 15:00 UTC


161400Z 1615/1715 08006KT CAVOK



MET'MAP, your aeronautical weather chart ! - Copyright ORBIFLY December 2007 - Disclaimer

ORBIFLY MET'MAP TEAM :

Programming & Development : Alexandra Zaïnal
Original concept : Baudouin d'Aumeries
Technical & hardware support : Manuel Goepfert
Assistance : Marc-Olivier Méhu




SOURCES & CREDITS :

   NOAA